createdAt,value
2022-11-24T00:02:20.935Z,43.40
2022-11-24T00:04:48.934Z,42.20
2022-11-24T00:07:16.907Z,43.30
2022-11-24T00:09:44.921Z,37.30
2022-11-24T00:12:12.898Z,36.90
2022-11-24T00:14:40.828Z,38.80
2022-11-24T00:17:08.798Z,34.10
2022-11-24T00:19:36.745Z,37.00
2022-11-24T00:22:04.630Z,33.60
2022-11-24T00:24:32.840Z,37.70
2022-11-24T00:27:00.911Z,40.40
2022-11-24T00:29:28.836Z,43.10
2022-11-24T00:31:56.895Z,41.20
2022-11-24T00:34:24.932Z,44.00
2022-11-24T00:36:52.853Z,41.90
2022-11-24T00:39:20.832Z,38.70
2022-11-24T00:41:48.793Z,36.40
2022-11-24T00:44:16.722Z,38.10
2022-11-24T00:46:44.756Z,41.40
2022-11-24T00:49:12.817Z,42.70
2022-11-24T00:51:40.926Z,45.90
2022-11-24T00:54:08.833Z,43.20
2022-11-24T00:56:37.007Z,38.00
2022-11-24T00:59:04.991Z,36.90
2022-11-24T01:01:33.040Z,35.00
2022-11-24T01:04:02.164Z,35.50
2022-11-24T01:06:31.196Z,39.10
2022-11-24T01:08:59.150Z,39.10
2022-11-24T01:11:28.288Z,37.50
2022-11-24T01:13:58.742Z,35.10
2022-11-24T01:16:30.256Z,35.40
2022-11-24T01:18:58.267Z,35.40
2022-11-24T01:21:26.276Z,38.40
2022-11-24T01:23:54.214Z,37.50
2022-11-24T01:26:23.170Z,40.10
2022-11-24T01:28:56.410Z,39.20
2022-11-24T01:31:26.150Z,37.00
2022-11-24T01:33:55.250Z,38.10
2022-11-24T01:36:23.274Z,35.00
2022-11-24T01:38:52.063Z,36.80
2022-11-24T01:41:24.285Z,34.80
2022-11-24T01:43:53.855Z,40.70
2022-11-24T01:46:32.639Z,38.30
2022-11-24T01:49:12.319Z,33.20
2022-11-24T01:51:50.653Z,32.10
2022-11-24T01:54:22.623Z,31.20
2022-11-24T01:56:55.271Z,31.30
2022-11-24T01:59:24.182Z,32.60
2022-11-24T02:01:53.405Z,31.20
2022-11-24T02:04:27.198Z,30.00
2022-11-24T02:06:59.794Z,28.40
2022-11-24T02:09:39.412Z,26.90
2022-11-24T02:12:07.643Z,30.20
2022-11-24T02:14:37.978Z,29.90
2022-11-24T02:17:05.904Z,31.70
2022-11-24T02:19:36.709Z,30.40
2022-11-24T02:22:04.943Z,28.70
2022-11-24T02:24:47.622Z,27.40
2022-11-24T02:27:15.839Z,27.40
2022-11-24T02:29:43.938Z,27.90
2022-11-24T02:32:12.501Z,27.50
2022-11-24T02:34:40.489Z,27.00
2022-11-24T02:37:08.467Z,27.10
2022-11-24T02:39:36.399Z,27.20
2022-11-24T02:42:09.643Z,29.20
2022-11-24T02:44:46.653Z,31.80
2022-11-24T02:47:14.576Z,29.40
2022-11-24T02:49:42.583Z,32.00
2022-11-24T02:52:10.605Z,31.70
2022-11-24T02:54:38.571Z,31.60
2022-11-24T02:57:06.655Z,30.00
2022-11-24T02:59:34.567Z,32.30
2022-11-24T03:02:03.068Z,28.70
2022-11-24T03:04:31.164Z,30.50
2022-11-24T03:06:59.195Z,30.60
2022-11-24T03:09:27.047Z,29.20
2022-11-24T03:11:54.952Z,30.90
2022-11-24T03:14:22.875Z,29.40
2022-11-24T03:16:50.779Z,30.30
2022-11-24T03:19:18.697Z,29.10
2022-11-24T03:21:46.636Z,29.60
2022-11-24T03:24:14.579Z,27.60
2022-11-24T03:26:42.558Z,28.50
2022-11-24T03:29:10.582Z,27.30
2022-11-24T03:31:38.677Z,27.70
2022-11-24T03:34:06.624Z,29.50
2022-11-24T03:36:34.548Z,29.60
2022-11-24T03:39:02.482Z,29.80
2022-11-24T03:41:30.462Z,28.50
2022-11-24T03:43:58.479Z,29.90
2022-11-24T03:46:26.630Z,26.70
2022-11-24T03:48:54.544Z,28.70
2022-11-24T03:51:22.431Z,28.70
2022-11-24T03:53:50.360Z,29.90
2022-11-24T03:56:18.419Z,29.90
2022-11-24T03:58:46.444Z,27.30
2022-11-24T04:01:14.484Z,27.90
2022-11-24T04:03:42.354Z,29.00
2022-11-24T04:06:10.573Z,31.30
2022-11-24T04:08:38.572Z,31.70
2022-11-24T04:11:07.261Z,32.90
2022-11-24T04:13:35.163Z,33.40
2022-11-24T04:16:06.055Z,32.30
2022-11-24T04:18:34.223Z,33.70
2022-11-24T04:21:02.166Z,35.80
2022-11-24T04:23:30.019Z,35.40
2022-11-24T04:25:57.873Z,34.00
2022-11-24T04:28:25.858Z,35.90
2022-11-24T04:30:53.902Z,30.40
2022-11-24T04:33:21.887Z,30.40
2022-11-24T04:35:53.699Z,29.10
2022-11-24T04:39:20.073Z,29.20
2022-11-24T04:41:09.906Z,33.30
2022-11-24T04:43:40.643Z,33.80
2022-11-24T04:46:11.141Z,33.90
2022-11-24T04:48:39.080Z,31.40
2022-11-24T04:51:07.575Z,33.20
2022-11-24T04:53:35.487Z,31.60
2022-11-24T04:56:06.937Z,34.40
2022-11-24T04:58:34.982Z,33.70
2022-11-24T05:01:08.168Z,31.90
2022-11-24T05:03:37.325Z,32.50
2022-11-24T05:06:05.584Z,32.90
2022-11-24T05:08:33.707Z,35.50
2022-11-24T05:11:06.235Z,37.90
2022-11-24T05:13:34.212Z,36.80
2022-11-24T05:16:02.307Z,41.20
2022-11-24T05:18:30.425Z,39.60
2022-11-24T05:20:59.023Z,46.00
2022-11-24T05:23:27.401Z,41.30
2022-11-24T05:26:00.215Z,31.00
2022-11-24T05:28:28.929Z,40.70
2022-11-24T05:31:03.924Z,43.10
2022-11-24T05:33:33.628Z,45.00
2022-11-24T05:36:03.567Z,41.60
2022-11-24T05:38:32.274Z,35.40
2022-11-24T05:41:01.919Z,36.10
2022-11-24T05:43:30.339Z,37.90
2022-11-24T05:46:01.861Z,39.10
2022-11-24T05:48:29.844Z,43.10
2022-11-24T05:50:58.705Z,45.30
2022-11-24T05:53:27.132Z,45.60
2022-11-24T05:55:55.070Z,43.00
2022-11-24T05:58:23.132Z,52.10
2022-11-24T06:00:50.983Z,57.80
2022-11-24T06:03:19.015Z,56.80
2022-11-24T06:05:47.490Z,53.90
2022-11-24T06:08:15.683Z,62.70
2022-11-24T06:10:43.608Z,44.30
2022-11-24T06:13:11.527Z,44.20
2022-11-24T06:15:40.876Z,49.70
2022-11-24T06:18:08.809Z,41.40
2022-11-24T06:20:36.801Z,44.40
2022-11-24T06:23:04.771Z,46.50
2022-11-24T06:25:32.661Z,42.40
2022-11-24T06:28:04.249Z,47.70
2022-11-24T06:30:32.336Z,46.80
2022-11-24T06:33:00.506Z,54.00
2022-11-24T06:35:28.766Z,51.40
2022-11-24T06:37:56.773Z,71.00
2022-11-24T06:40:24.805Z,67.20
2022-11-24T06:42:52.955Z,57.50
2022-11-24T06:45:20.959Z,60.40
2022-11-24T06:47:49.107Z,50.60
2022-11-24T06:50:17.145Z,52.40
2022-11-24T06:52:45.099Z,51.20
2022-11-24T06:55:13.085Z,45.80
2022-11-24T06:57:41.040Z,48.30
2022-11-24T07:00:09.438Z,43.30
2022-11-24T07:02:42.555Z,43.10
2022-11-24T07:05:14.428Z,50.50
2022-11-24T07:07:42.528Z,47.70
2022-11-24T07:10:10.527Z,51.20
2022-11-24T07:12:38.428Z,46.60
2022-11-24T07:15:07.144Z,42.40
2022-11-24T07:17:39.583Z,41.90
2022-11-24T07:20:09.056Z,43.40
2022-11-24T07:22:37.018Z,47.90
2022-11-24T07:25:07.552Z,44.80
2022-11-24T07:27:36.139Z,44.80
2022-11-24T07:30:04.563Z,43.80
2022-11-24T07:32:33.109Z,47.90
2022-11-24T07:35:01.210Z,49.90
2022-11-24T07:37:31.507Z,54.00
2022-11-24T07:40:00.131Z,47.80
2022-11-24T07:42:28.256Z,51.90
2022-11-24T07:44:56.313Z,48.10
2022-11-24T07:47:24.348Z,52.30
2022-11-24T07:49:52.288Z,53.70
2022-11-24T07:52:20.215Z,53.30
2022-11-24T07:54:48.144Z,49.80
2022-11-24T07:57:16.100Z,48.30
2022-11-24T07:59:44.080Z,46.60
2022-11-24T08:02:13.383Z,44.70
2022-11-24T08:04:41.331Z,46.50
2022-11-24T08:07:09.339Z,46.80
2022-11-24T08:09:37.295Z,46.60
2022-11-24T08:12:05.775Z,39.70
2022-11-24T08:14:33.848Z,38.20
2022-11-24T08:17:05.505Z,37.20
2022-11-24T08:19:34.846Z,36.20
2022-11-24T08:22:02.972Z,33.40
2022-11-24T08:24:32.010Z,34.10
2022-11-24T08:27:00.198Z,32.30
2022-11-24T08:29:29.679Z,32.10
2022-11-24T08:31:58.119Z,31.60
2022-11-24T08:34:26.919Z,33.40
2022-11-24T08:36:55.103Z,31.90
2022-11-24T08:39:23.066Z,31.10
2022-11-24T08:41:51.064Z,32.70
2022-11-24T08:44:18.962Z,32.80
2022-11-24T08:46:46.897Z,29.10
2022-11-24T08:49:15.245Z,32.30
2022-11-24T08:51:43.478Z,32.70
2022-11-24T08:54:13.579Z,30.90
2022-11-24T08:56:42.355Z,31.70
2022-11-24T08:59:13.918Z,31.80
2022-11-24T09:01:42.197Z,34.20
2022-11-24T09:04:10.227Z,32.60
2022-11-24T09:06:38.242Z,33.80
2022-11-24T09:09:06.214Z,32.50
2022-11-24T09:11:34.795Z,36.30
2022-11-24T09:14:03.629Z,37.10
2022-11-24T09:16:31.689Z,37.20
2022-11-24T09:19:02.660Z,35.50
2022-11-24T09:21:34.217Z,37.00
2022-11-24T09:24:02.242Z,42.20
2022-11-24T09:26:32.795Z,43.80
2022-11-24T09:29:02.481Z,49.40
2022-11-24T09:31:36.269Z,54.50
2022-11-24T09:34:06.169Z,56.30
2022-11-24T09:36:35.237Z,41.70
2022-11-24T09:39:03.730Z,39.20
2022-11-24T09:41:41.057Z,40.80
2022-11-24T09:44:24.691Z,39.50
2022-11-24T09:47:04.139Z,46.60
2022-11-24T09:49:55.721Z,48.30
2022-11-24T09:52:41.581Z,52.50
2022-11-24T09:55:28.792Z,43.40
2022-11-24T09:58:30.300Z,39.70
2022-11-24T10:00:59.299Z,41.20
2022-11-24T10:03:39.409Z,44.40
2022-11-24T10:06:27.254Z,43.50
2022-11-24T10:09:15.903Z,47.80
2022-11-24T10:11:58.856Z,44.30
2022-11-24T10:14:29.906Z,44.70
2022-11-24T10:17:17.958Z,46.90
2022-11-24T10:20:11.279Z,43.60
2022-11-24T10:22:51.543Z,43.70
2022-11-24T10:25:30.042Z,44.10
2022-11-24T10:28:10.164Z,50.70
2022-11-24T10:30:38.297Z,51.30
2022-11-24T10:33:24.257Z,49.70
2022-11-24T10:36:09.561Z,54.90
2022-11-24T10:38:45.837Z,48.00
2022-11-24T10:41:35.686Z,55.10
2022-11-24T10:44:03.720Z,56.50
2022-11-24T10:46:36.371Z,51.90
2022-11-24T10:49:07.254Z,54.80
2022-11-24T10:51:48.689Z,55.10
2022-11-24T10:54:23.710Z,57.00
2022-11-24T10:56:54.256Z,54.50
2022-11-24T10:59:25.118Z,57.30
2022-11-24T11:01:53.680Z,59.90
2022-11-24T11:04:27.600Z,61.40
2022-11-24T11:07:20.115Z,65.00
2022-11-24T11:09:48.909Z,71.10
2022-11-24T11:12:44.584Z,95.00
2022-11-24T11:15:29.977Z,96.20
2022-11-24T11:20:32.449Z,72.40
2022-11-24T11:23:03.558Z,64.20
2022-11-24T11:25:34.372Z,62.50
2022-11-24T11:28:31.762Z,59.40
2022-11-24T11:34:18.248Z,66.60
2022-11-24T11:36:53.400Z,70.60
2022-11-24T11:39:24.071Z,76.20
2022-11-24T11:42:02.577Z,78.50
2022-11-24T11:44:52.417Z,72.60
2022-11-24T11:47:28.840Z,66.90
2022-11-24T11:49:58.479Z,76.10
2022-11-24T11:52:56.239Z,58.90
2022-11-24T11:55:46.642Z,60.30
2022-11-24T11:58:49.829Z,65.20
2022-11-24T12:01:23.543Z,58.80
2022-11-24T12:04:12.943Z,56.90
2022-11-24T12:07:02.831Z,51.20
2022-11-24T12:10:08.505Z,50.50
2022-11-24T12:12:45.817Z,54.00
2022-11-24T12:15:32.017Z,66.00
2022-11-24T12:21:40.718Z,38.30
2022-11-24T12:24:30.532Z,42.00
2022-11-24T12:27:22.279Z,41.00
2022-11-24T12:30:08.072Z,38.80
2022-11-24T12:33:08.643Z,39.40
2022-11-24T12:35:45.785Z,38.60
2022-11-24T12:38:25.924Z,37.50
2022-11-24T12:41:39.668Z,36.90
2022-11-24T12:44:02.165Z,39.40
2022-11-24T12:46:30.199Z,39.00
2022-11-24T12:49:10.258Z,39.50
2022-11-24T12:51:52.416Z,38.70
2022-11-24T12:54:23.026Z,44.50
2022-11-24T12:57:07.079Z,43.30
2022-11-24T12:59:51.590Z,44.70
2022-11-24T13:02:54.700Z,44.80
2022-11-24T13:05:42.501Z,44.00
2022-11-24T13:08:11.079Z,43.00
2022-11-24T13:10:55.861Z,43.80
2022-11-24T13:13:29.980Z,43.00
2022-11-24T13:16:35.065Z,47.60
2022-11-24T13:19:10.272Z,48.40
2022-11-24T13:21:41.579Z,47.50
2022-11-24T13:24:20.051Z,47.60
2022-11-24T13:26:51.534Z,45.30
2022-11-24T13:29:29.084Z,46.70
2022-11-24T13:32:03.274Z,46.90
2022-11-24T13:34:40.562Z,45.90
2022-11-24T13:37:28.969Z,43.30
2022-11-24T13:40:12.476Z,41.90
2022-11-24T13:42:58.874Z,41.60
2022-11-24T13:45:39.024Z,40.20
2022-11-24T13:48:18.967Z,41.90
2022-11-24T13:50:50.138Z,44.50
2022-11-24T13:53:43.762Z,47.50
2022-11-24T13:56:11.613Z,44.20
2022-11-24T13:58:39.571Z,42.20
2022-11-24T14:01:10.398Z,43.70
2022-11-24T14:04:22.044Z,46.50
2022-11-24T14:06:49.262Z,43.30
2022-11-24T14:09:23.240Z,37.20
2022-11-24T14:12:22.085Z,38.30
2022-11-24T14:14:52.663Z,29.30
2022-11-24T14:17:27.895Z,29.10
2022-11-24T14:19:57.825Z,28.90
2022-11-24T14:22:39.353Z,26.30
2022-11-24T14:25:32.445Z,26.50
2022-11-24T14:28:00.925Z,26.80
2022-11-24T14:30:29.073Z,24.10
2022-11-24T14:32:58.707Z,27.50
2022-11-24T14:35:29.991Z,24.60
2022-11-24T14:38:06.207Z,21.50
2022-11-24T14:40:42.142Z,22.30
2022-11-24T14:43:20.349Z,24.10
2022-11-24T14:46:18.285Z,25.20
2022-11-24T14:48:48.919Z,26.60
2022-11-24T14:51:34.296Z,29.50
2022-11-24T14:54:05.284Z,27.40
2022-11-24T14:56:35.241Z,28.80
2022-11-24T14:59:04.809Z,28.60
2022-11-24T15:01:34.947Z,30.30
2022-11-24T15:04:54.256Z,30.20
2022-11-24T15:07:25.739Z,28.20
2022-11-24T15:09:59.344Z,28.50
2022-11-24T15:12:39.597Z,33.30
2022-11-24T15:15:13.542Z,30.30
2022-11-24T15:17:55.667Z,37.10
2022-11-24T15:20:37.008Z,35.90
2022-11-24T15:23:23.182Z,37.70
2022-11-24T15:25:53.564Z,38.20
2022-11-24T15:28:26.017Z,37.70
2022-11-24T15:30:55.318Z,42.20
2022-11-24T15:33:23.810Z,48.10
2022-11-24T15:35:52.016Z,37.80
2022-11-24T15:38:20.037Z,37.70
2022-11-24T15:40:50.759Z,35.00
2022-11-24T15:43:36.632Z,29.80
2022-11-24T15:46:05.844Z,27.10
2022-11-24T15:48:33.912Z,29.60
2022-11-24T15:51:03.555Z,32.60
2022-11-24T15:53:36.207Z,30.20
2022-11-24T15:56:07.451Z,31.10
2022-11-24T15:58:35.365Z,32.10
2022-11-24T16:01:03.517Z,29.00
2022-11-24T16:03:48.487Z,31.00
2022-11-24T16:06:24.737Z,34.10
2022-11-24T16:08:54.680Z,32.70
2022-11-24T16:11:23.037Z,34.10
2022-11-24T16:13:53.365Z,32.10
2022-11-24T16:16:23.534Z,31.50
2022-11-24T16:18:51.680Z,30.40
2022-11-24T16:21:19.774Z,28.20
2022-11-24T16:23:48.914Z,30.10
2022-11-24T16:26:16.881Z,28.90
2022-11-24T16:28:45.954Z,29.90
2022-11-24T16:31:16.200Z,28.70
2022-11-24T16:33:45.445Z,28.50
2022-11-24T16:36:14.293Z,28.90
2022-11-24T16:38:42.200Z,28.40
2022-11-24T16:41:10.817Z,30.90
2022-11-24T16:43:38.950Z,34.70
2022-11-24T16:46:19.463Z,36.20
2022-11-24T16:48:50.067Z,33.10
2022-11-24T16:51:20.739Z,28.90
2022-11-24T16:53:56.365Z,26.40
2022-11-24T16:56:24.508Z,24.90
2022-11-24T16:58:52.566Z,24.40
2022-11-24T17:01:21.421Z,22.00
2022-11-24T17:03:49.537Z,23.50
2022-11-24T17:06:17.918Z,26.30
2022-11-24T17:08:47.178Z,25.00
2022-11-24T17:11:22.387Z,25.60
2022-11-24T17:13:50.960Z,23.20
2022-11-24T17:16:21.343Z,25.60
2022-11-24T17:18:58.695Z,26.60
2022-11-24T17:21:28.000Z,30.00
2022-11-24T17:23:57.845Z,26.90
2022-11-24T17:26:27.139Z,27.80
2022-11-24T17:28:56.139Z,28.30
2022-11-24T17:31:32.209Z,30.20
2022-11-24T17:34:00.504Z,30.50
2022-11-24T17:36:30.877Z,28.40
2022-11-24T17:39:04.571Z,29.40
2022-11-24T17:41:34.308Z,30.40
2022-11-24T17:44:02.896Z,34.10
2022-11-24T17:46:31.160Z,33.20
2022-11-24T17:48:59.175Z,34.90
2022-11-24T17:51:27.222Z,33.30
2022-11-24T17:53:57.694Z,34.60
2022-11-24T17:56:27.342Z,37.20
2022-11-24T17:58:58.775Z,36.10
2022-11-24T18:01:30.316Z,34.30
2022-11-24T18:03:58.844Z,35.10
2022-11-24T18:06:28.733Z,30.70
2022-11-24T18:08:57.996Z,30.20
2022-11-24T18:11:32.083Z,31.00
2022-11-24T18:16:32.510Z,33.50
2022-11-24T18:19:11.369Z,47.70
2022-11-24T18:21:41.458Z,49.20
2022-11-24T18:24:11.041Z,36.90
2022-11-24T18:26:40.599Z,36.80
2022-11-24T18:29:09.069Z,37.00
2022-11-24T18:31:37.669Z,37.80
2022-11-24T18:34:06.307Z,33.40
2022-11-24T18:36:35.150Z,37.00
2022-11-24T18:39:05.541Z,42.10
2022-11-24T18:41:34.567Z,46.10
2022-11-24T18:44:14.972Z,49.80
2022-11-24T18:46:43.243Z,56.60
2022-11-24T18:49:11.268Z,58.10
2022-11-24T18:51:39.293Z,53.90
2022-11-24T18:54:07.411Z,54.30
2022-11-24T18:56:35.394Z,56.00
2022-11-24T18:59:11.240Z,59.30
2022-11-24T19:01:39.250Z,59.10
2022-11-24T19:04:07.320Z,56.40
2022-11-24T19:06:38.030Z,51.60
2022-11-24T19:09:31.437Z,45.20
2022-11-24T19:12:00.042Z,52.70
2022-11-24T19:14:28.107Z,52.60
2022-11-24T19:16:56.489Z,50.70
2022-11-24T19:19:24.527Z,46.30
2022-11-24T19:21:52.462Z,49.10
2022-11-24T19:24:41.658Z,48.40
2022-11-24T19:27:10.830Z,44.00
2022-11-24T19:29:42.948Z,49.50
2022-11-24T19:32:11.565Z,51.00
2022-11-24T19:34:39.728Z,47.00
2022-11-24T19:37:07.728Z,52.60
2022-11-24T19:39:36.286Z,55.50
2022-11-24T19:42:04.914Z,60.70
2022-11-24T19:44:33.010Z,63.60
2022-11-24T19:47:01.710Z,59.10
2022-11-24T19:49:29.666Z,59.10
2022-11-24T19:51:57.685Z,56.60
2022-11-24T19:54:25.712Z,61.70
2022-11-24T19:56:55.481Z,63.80
2022-11-24T19:59:24.043Z,81.40
2022-11-24T20:01:52.765Z,62.50
2022-11-24T20:04:20.913Z,65.20
2022-11-24T20:06:49.156Z,49.00
2022-11-24T20:09:17.883Z,56.00
2022-11-24T20:11:46.117Z,58.20
2022-11-24T20:14:16.188Z,51.10
2022-11-24T20:16:46.552Z,66.70
2022-11-24T20:19:16.445Z,75.50
2022-11-24T20:21:47.778Z,78.50
2022-11-24T20:24:19.354Z,84.00
2022-11-24T20:26:50.186Z,65.80
2022-11-24T20:29:20.196Z,77.90
2022-11-24T20:31:51.420Z,68.70
2022-11-24T20:34:20.684Z,72.90
2022-11-24T20:36:49.122Z,72.50
2022-11-24T20:39:25.437Z,63.00
2022-11-24T20:41:55.141Z,50.10
2022-11-24T20:44:26.833Z,55.50
2022-11-24T20:46:56.871Z,60.90
2022-11-24T20:49:25.163Z,64.60
2022-11-24T20:51:57.461Z,61.50
2022-11-24T20:54:25.856Z,53.70
2022-11-24T20:56:54.334Z,59.60
2022-11-24T20:59:23.849Z,65.40
2022-11-24T21:01:55.281Z,78.70
2022-11-24T21:04:25.568Z,71.20
2022-11-24T21:06:53.655Z,65.70
2022-11-24T21:09:21.653Z,53.10
2022-11-24T21:11:49.593Z,54.90
2022-11-24T21:14:17.565Z,54.80
2022-11-24T21:16:45.675Z,57.80
2022-11-24T21:19:19.481Z,62.80
2022-11-24T21:21:48.862Z,66.80
2022-11-24T21:24:18.963Z,63.30
2022-11-24T21:26:51.749Z,64.80
2022-11-24T21:29:22.458Z,64.10
2022-11-24T21:31:50.664Z,57.60
2022-11-24T21:34:19.521Z,62.20
2022-11-24T21:36:48.044Z,66.60
2022-11-24T21:39:16.600Z,71.20
2022-11-24T21:41:44.813Z,71.60
2022-11-24T21:44:14.167Z,70.30
2022-11-24T21:46:48.239Z,71.60
2022-11-24T21:49:21.004Z,73.50
2022-11-24T21:51:55.379Z,81.70
2022-11-24T21:54:23.939Z,81.90
2022-11-24T21:56:53.362Z,85.60
2022-11-24T21:59:24.070Z,80.70
2022-11-24T22:01:52.138Z,76.90
2022-11-24T22:04:20.145Z,78.80
2022-11-24T22:06:48.042Z,80.00
2022-11-24T22:09:18.298Z,81.30
2022-11-24T22:11:49.371Z,83.30
2022-11-24T22:14:17.620Z,92.10
2022-11-24T22:16:46.139Z,82.10
2022-11-24T22:19:14.141Z,82.50
2022-11-24T22:21:42.296Z,81.80
2022-11-24T22:24:10.600Z,86.80
2022-11-24T22:26:38.717Z,90.20
2022-11-24T22:29:07.790Z,96.20
2022-11-24T22:31:36.861Z,97.40
2022-11-24T22:34:05.028Z,91.90
2022-11-24T22:36:33.052Z,90.50
2022-11-24T22:39:03.457Z,88.00
2022-11-24T22:41:34.026Z,90.00
2022-11-24T22:44:02.207Z,90.80
2022-11-24T22:46:31.596Z,95.60
2022-11-24T22:49:01.110Z,91.80
2022-11-24T22:51:34.743Z,90.30
2022-11-24T22:54:04.287Z,92.60
2022-11-24T22:56:33.641Z,96.60
2022-11-24T22:59:02.823Z,100.50
2022-11-24T23:01:32.295Z,101.00
2022-11-24T23:04:17.711Z,102.60
2022-11-24T23:06:45.890Z,119.90
2022-11-24T23:09:14.016Z,108.70
2022-11-24T23:11:41.960Z,117.70
2022-11-24T23:14:15.212Z,128.00
2022-11-24T23:16:46.146Z,140.20
2022-11-24T23:19:14.133Z,108.40
2022-11-24T23:21:42.042Z,100.00
2022-11-24T23:24:10.894Z,101.50
2022-11-24T23:26:40.691Z,101.80
2022-11-24T23:29:10.639Z,106.40
2022-11-24T23:31:41.558Z,108.10
2022-11-24T23:34:09.625Z,116.50
2022-11-24T23:36:38.157Z,106.50
2022-11-24T23:39:09.040Z,109.50
2022-11-24T23:41:36.963Z,105.90
2022-11-24T23:44:05.100Z,104.20
2022-11-24T23:46:33.466Z,108.70
2022-11-24T23:49:01.443Z,116.70
2022-11-24T23:51:33.105Z,121.70
2022-11-24T23:54:01.354Z,112.10
2022-11-24T23:56:33.331Z,109.40
2022-11-24T23:59:03.388Z,107.00
